Holder, Florida
Current Conditions -  °F | °C
As of 9:35 AM on Thursday 29 Jan 2015 (Local Time) from KCGC Reporting Station
Clear Clear  
Wind Chill: 50°   Ceiling: Unl
Heat Index: 50°   Visibility: 10mi
Dew Point: 41°   Wind: 3mph
Humidity: 71%   Direction: 70°ENE
Pressure: 30.35"   Gusts: NA
Location:  28.97°N, 82.42°W
Report Text: KCGC 291435Z AUTO 07003KT 10SM CLR 10/05 A3035 RMK AO2
Loading
Personal Weather Stations






























Interactive Weather Map New forecast layout! Learn more

10-Day Weather Forecast

Advertisements
Track Severe Weather on mobile